createdAt,value
2019-01-31T00:00:30.504Z,98051.52
2019-01-31T00:01:01.675Z,98057.49
2019-01-31T00:01:32.843Z,98053.05
2019-01-31T00:02:04.003Z,98051.68
2019-01-31T00:02:35.166Z,98053.84
2019-01-31T00:03:06.329Z,98051.64
2019-01-31T00:03:37.495Z,98051.48
2019-01-31T00:04:08.702Z,98054.33
2019-01-31T00:04:39.883Z,98055.27
2019-01-31T00:05:11.046Z,98049.61
2019-01-31T00:05:42.218Z,98049.68
2019-01-31T00:06:13.385Z,98047.59
2019-01-31T00:06:44.566Z,98048.89
2019-01-31T00:07:15.736Z,98049.36
2019-01-31T00:07:46.920Z,98050.66
2019-01-31T00:08:18.132Z,98050.34
2019-01-31T00:08:49.295Z,98049.95
2019-01-31T00:09:20.479Z,98050.45
2019-01-31T00:09:51.641Z,98057.85
2019-01-31T00:10:22.829Z,98054.50
2019-01-31T00:10:54.010Z,98056.31
2019-01-31T00:11:25.172Z,98057.68
2019-01-31T00:11:56.400Z,98059.05
2019-01-31T00:12:27.570Z,98062.95
2019-01-31T00:12:58.777Z,98059.09
2019-01-31T00:13:29.945Z,98061.25
2019-01-31T00:14:01.111Z,98062.98
2019-01-31T00:14:32.289Z,98068.58
2019-01-31T00:15:03.452Z,98064.25
2019-01-31T00:15:34.614Z,98070.34
2019-01-31T00:16:05.794Z,98072.47
2019-01-31T00:16:36.959Z,98066.84
2019-01-31T00:17:08.133Z,98072.40
2019-01-31T00:17:39.307Z,98069.80
2019-01-31T00:18:10.489Z,98071.09
2019-01-31T00:18:41.641Z,98073.58
2019-01-31T00:19:12.872Z,98071.50
2019-01-31T00:19:44.043Z,98073.19
2019-01-31T00:20:15.240Z,98072.28
2019-01-31T00:20:46.416Z,98068.39
2019-01-31T00:21:17.582Z,98065.87
2019-01-31T00:21:48.749Z,98070.66
2019-01-31T00:22:19.924Z,98069.80
2019-01-31T00:22:51.092Z,98069.80
2019-01-31T00:23:22.276Z,98068.97
2019-01-31T00:23:53.456Z,98067.35
2019-01-31T00:24:24.670Z,98061.95
2019-01-31T00:24:55.856Z,98062.02
2019-01-31T00:25:27.041Z,98062.02
2019-01-31T00:25:58.262Z,98061.52
2019-01-31T00:26:29.440Z,98062.81
2019-01-31T00:27:00.598Z,98067.03
2019-01-31T00:27:31.763Z,98062.66
2019-01-31T00:28:02.926Z,98057.41
2019-01-31T00:28:34.112Z,98060.86
2019-01-31T00:29:05.280Z,98058.66
2019-01-31T00:29:36.451Z,98060.72
2019-01-31T00:30:07.622Z,98065.55
2019-01-31T00:30:38.808Z,98061.65
2019-01-31T00:31:10.162Z,98061.65
2019-01-31T00:31:41.272Z,98059.05
2019-01-31T00:32:12.459Z,98065.87
2019-01-31T00:32:43.626Z,98069.69
2019-01-31T00:33:14.790Z,98061.39
2019-01-31T00:33:45.982Z,98062.61
2019-01-31T00:34:17.157Z,98063.37
2019-01-31T00:34:48.385Z,98068.52
2019-01-31T00:35:19.564Z,98063.69
2019-01-31T00:35:50.721Z,98064.48
2019-01-31T00:36:21.889Z,98065.34
2019-01-31T00:36:53.041Z,98068.26
2019-01-31T00:37:24.220Z,98066.09
2019-01-31T00:37:55.404Z,98067.98
2019-01-31T00:38:26.570Z,98071.37
2019-01-31T00:38:57.752Z,98070.19
2019-01-31T00:39:28.926Z,98066.28
2019-01-31T00:40:00.200Z,98065.92
2019-01-31T00:40:31.347Z,98063.33
2019-01-31T00:41:02.527Z,98063.91
2019-01-31T00:41:33.705Z,98070.84
2019-01-31T00:42:04.898Z,98070.52
2019-01-31T00:42:36.110Z,98070.52
2019-01-31T00:43:07.325Z,98068.90
2019-01-31T00:43:38.534Z,98074.88
2019-01-31T00:44:09.746Z,98075.31
2019-01-31T00:44:40.960Z,98072.72
2019-01-31T00:45:12.161Z,98071.50
2019-01-31T00:45:43.409Z,98068.50
2019-01-31T00:46:14.621Z,98070.20
2019-01-31T00:46:45.909Z,98068.06
2019-01-31T00:47:17.119Z,98065.00
2019-01-31T00:47:48.319Z,98068.97
2019-01-31T00:48:19.543Z,98067.20
2019-01-31T00:48:52.862Z,98072.87
2019-01-31T00:49:24.093Z,98071.64
2019-01-31T00:49:55.283Z,98066.45
2019-01-31T00:50:26.481Z,98068.58
2019-01-31T00:50:57.753Z,98069.05
2019-01-31T00:51:28.909Z,98068.26
2019-01-31T00:52:02.197Z,98066.17
2019-01-31T00:52:33.353Z,98064.55
2019-01-31T00:53:04.513Z,98066.42
2019-01-31T00:53:35.675Z,98068.70
2019-01-31T00:54:06.933Z,98070.07
2019-01-31T00:54:38.091Z,98070.97
2019-01-31T00:55:09.292Z,98071.77
2019-01-31T00:55:40.485Z,98072.67
2019-01-31T00:56:11.649Z,98070.07
2019-01-31T00:56:42.818Z,98076.12
2019-01-31T00:57:14.043Z,98073.57
2019-01-31T00:57:45.216Z,98076.17
2019-01-31T00:58:16.421Z,98074.51
2019-01-31T00:58:47.586Z,98067.73
2019-01-31T00:59:18.766Z,97931.67
2019-01-31T00:59:49.931Z,98074.30
2019-01-31T01:00:21.097Z,98074.73
2019-01-31T01:00:52.273Z,98076.45
2019-01-31T01:01:23.487Z,98072.64
2019-01-31T01:01:54.657Z,98080.03
2019-01-31T01:02:25.818Z,98077.04
2019-01-31T01:02:56.998Z,98077.58
2019-01-31T01:03:28.183Z,98073.22
2019-01-31T01:03:59.394Z,98073.28
2019-01-31T01:04:30.575Z,98078.91
2019-01-31T01:05:01.761Z,98077.18
2019-01-31T01:05:32.959Z,98077.25
2019-01-31T01:06:04.129Z,98074.27
2019-01-31T01:06:35.295Z,98077.29
2019-01-31T01:07:06.478Z,98072.96
2019-01-31T01:07:37.660Z,98072.56
2019-01-31T01:08:08.880Z,98070.80
2019-01-31T01:08:40.093Z,98075.16
2019-01-31T01:09:11.258Z,98076.89
2019-01-31T01:09:42.423Z,98077.36
2019-01-31T01:10:13.594Z,98078.66
2019-01-31T01:10:44.762Z,98076.14
2019-01-31T01:11:15.951Z,98079.23
2019-01-31T01:11:47.110Z,98072.89
2019-01-31T01:12:18.273Z,98078.11
2019-01-31T01:12:49.452Z,98073.53
2019-01-31T01:13:20.592Z,98078.33
2019-01-31T01:13:51.778Z,98074.47
2019-01-31T01:14:22.967Z,98080.06
2019-01-31T01:14:54.122Z,98073.64
2019-01-31T01:15:25.300Z,98082.26
2019-01-31T01:15:56.470Z,98081.83
2019-01-31T01:16:27.645Z,98084.48
2019-01-31T01:16:58.814Z,98086.62
2019-01-31T01:17:29.976Z,98083.62
2019-01-31T01:18:01.163Z,98094.00
2019-01-31T01:18:34.679Z,98088.05
2019-01-31T01:19:05.861Z,98091.48
2019-01-31T01:19:37.024Z,98088.05
2019-01-31T01:20:08.193Z,98095.44
2019-01-31T01:20:39.367Z,98093.34
2019-01-31T01:21:10.581Z,98097.64
2019-01-31T01:21:41.745Z,98098.11
2019-01-31T01:22:12.913Z,98093.28
2019-01-31T01:22:44.088Z,98087.33
2019-01-31T01:23:15.292Z,98083.88
2019-01-31T01:23:46.885Z,98088.30
2019-01-31T01:24:18.049Z,98093.59
2019-01-31T01:24:49.215Z,98085.05
2019-01-31T01:25:20.456Z,98087.75
2019-01-31T01:25:51.618Z,98087.81
2019-01-31T01:26:22.782Z,98086.95
2019-01-31T01:26:53.955Z,98085.29
2019-01-31T01:27:25.102Z,98093.84
2019-01-31T01:27:56.285Z,98091.78
2019-01-31T01:28:27.459Z,98093.44
2019-01-31T01:28:58.656Z,98090.98
2019-01-31T01:29:29.821Z,98097.47
2019-01-31T01:30:00.982Z,98090.48
2019-01-31T01:30:32.190Z,98096.09
2019-01-31T01:31:03.357Z,98098.70
2019-01-31T01:31:34.524Z,98096.43
2019-01-31T01:32:05.797Z,98094.73
2019-01-31T01:32:36.954Z,98095.13
2019-01-31T01:33:08.134Z,98096.00
2019-01-31T01:33:39.310Z,98095.53
2019-01-31T01:34:10.489Z,98097.73
2019-01-31T01:34:41.657Z,98097.80
2019-01-31T01:35:12.891Z,98097.86
2019-01-31T01:35:44.061Z,98098.77
2019-01-31T01:36:15.240Z,98101.80
2019-01-31T01:36:46.419Z,98101.46
2019-01-31T01:37:17.586Z,98105.35
2019-01-31T01:37:48.894Z,98100.70
2019-01-31T01:38:20.052Z,98096.02
2019-01-31T01:38:51.231Z,98099.50
2019-01-31T01:39:22.425Z,98103.80
2019-01-31T01:39:53.591Z,98100.04
2019-01-31T01:40:24.758Z,98103.93
2019-01-31T01:40:55.923Z,98105.26
2019-01-31T01:41:27.085Z,98102.34
2019-01-31T01:41:58.254Z,98104.53
2019-01-31T01:42:29.436Z,98102.47
2019-01-31T01:43:00.669Z,98106.36
2019-01-31T01:43:31.842Z,98101.28
2019-01-31T01:44:03.027Z,98098.69
2019-01-31T01:44:34.214Z,98105.16
2019-01-31T01:45:05.377Z,98101.28
2019-01-31T01:45:36.558Z,98103.44
2019-01-31T01:46:07.723Z,98099.22
2019-01-31T01:46:38.908Z,98097.05
2019-01-31T01:47:10.079Z,98099.25
2019-01-31T01:47:41.253Z,98099.31
2019-01-31T01:48:12.435Z,98103.73
2019-01-31T01:48:43.599Z,98101.98
2019-01-31T01:49:14.804Z,98101.14
2019-01-31T01:49:46.079Z,98101.18
2019-01-31T01:50:17.315Z,98103.84
2019-01-31T01:50:48.527Z,98108.95
2019-01-31T01:51:19.740Z,98103.91
2019-01-31T01:51:50.945Z,98102.55
2019-01-31T01:52:22.144Z,98106.92
2019-01-31T01:52:53.357Z,98098.39
2019-01-31T01:53:24.583Z,98101.48
2019-01-31T01:53:55.830Z,98095.89
2019-01-31T01:54:27.089Z,98093.70
2019-01-31T01:54:58.290Z,98090.31
2019-01-31T01:55:29.508Z,98093.83
2019-01-31T01:56:00.746Z,98093.83
2019-01-31T01:56:32.019Z,98091.27
2019-01-31T01:57:03.234Z,98097.32
2019-01-31T01:57:34.458Z,98092.56
2019-01-31T01:58:05.700Z,98100.25
2019-01-31T01:58:36.924Z,98098.62
2019-01-31T01:59:08.187Z,98099.91
2019-01-31T01:59:39.449Z,98100.31
2019-01-31T02:00:10.668Z,98105.09
2019-01-31T02:00:41.880Z,98103.41
2019-01-31T02:01:13.085Z,98106.49
2019-01-31T02:01:44.310Z,98097.98
2019-01-31T02:02:15.564Z,98099.05
2019-01-31T02:02:46.776Z,98100.58
2019-01-31T02:03:18.007Z,98102.27
2019-01-31T02:03:49.221Z,98093.63
2019-01-31T02:04:20.434Z,98103.57
2019-01-31T02:04:51.651Z,98096.69
2019-01-31T02:05:22.898Z,98092.00
2019-01-31T02:05:54.133Z,98093.30
2019-01-31T02:06:25.357Z,98094.20
2019-01-31T02:06:56.551Z,98089.55
2019-01-31T02:07:27.757Z,98086.16
2019-01-31T02:07:58.966Z,98087.59
2019-01-31T02:08:30.188Z,98088.48
2019-01-31T02:09:01.482Z,98088.91
2019-01-31T02:09:32.685Z,98089.05
2019-01-31T02:10:03.949Z,98094.30
2019-01-31T02:10:35.160Z,98093.89
2019-01-31T02:11:06.413Z,98094.30
2019-01-31T02:11:37.625Z,98092.59
2019-01-31T02:12:08.838Z,98096.09
2019-01-31T02:12:40.029Z,98089.61
2019-01-31T02:13:11.241Z,98090.50
2019-01-31T02:13:42.456Z,98090.91
2019-01-31T02:14:13.658Z,98088.31
2019-01-31T02:14:44.895Z,98089.17
2019-01-31T02:15:16.082Z,98096.02
2019-01-31T02:15:47.346Z,98090.97
2019-01-31T02:16:18.571Z,98096.22
2019-01-31T02:16:51.473Z,98091.93
2019-01-31T02:17:22.951Z,98093.22
2019-01-31T02:17:55.139Z,98091.13
2019-01-31T02:18:26.360Z,98089.03
2019-01-31T02:18:57.586Z,98088.70
2019-01-31T02:19:28.897Z,98087.87
2019-01-31T02:20:00.353Z,98088.34
2019-01-31T02:20:31.609Z,98085.67
2019-01-31T02:21:02.865Z,98095.15
2019-01-31T02:21:34.075Z,98087.74
2019-01-31T02:22:05.325Z,98085.55
2019-01-31T02:22:36.533Z,98088.61
2019-01-31T02:23:07.749Z,98087.74
2019-01-31T02:23:39.302Z,98084.78
2019-01-31T02:24:10.501Z,98089.03
2019-01-31T02:24:41.693Z,98085.28
2019-01-31T02:25:12.901Z,98091.48
2019-01-31T02:25:44.114Z,98083.75
2019-01-31T02:26:15.367Z,98091.52
2019-01-31T02:26:46.574Z,98087.63
2019-01-31T02:27:17.793Z,98087.27
2019-01-31T02:27:49.000Z,98088.59
2019-01-31T02:28:20.212Z,98092.88
2019-01-31T02:28:51.441Z,98095.13
2019-01-31T02:29:22.678Z,98092.61
2019-01-31T02:29:53.913Z,98092.94
2019-01-31T02:30:25.115Z,98093.91
2019-01-31T02:30:56.334Z,98095.59
2019-01-31T02:31:27.610Z,98103.77
2019-01-31T02:31:58.848Z,98094.58
2019-01-31T02:32:30.064Z,98096.60
2019-01-31T02:33:01.282Z,98096.05
2019-01-31T02:33:32.493Z,98100.33
2019-01-31T02:34:03.702Z,98096.31
2019-01-31T02:34:35.052Z,98099.30
2019-01-31T02:35:06.219Z,98100.20
2019-01-31T02:35:37.491Z,98093.32
2019-01-31T02:36:08.692Z,98090.33
2019-01-31T02:36:39.915Z,98096.05
2019-01-31T02:37:11.122Z,98097.34
2019-01-31T02:37:42.330Z,98089.97
2019-01-31T02:38:13.527Z,98087.37
2019-01-31T02:38:44.739Z,98089.03
2019-01-31T02:39:15.969Z,98090.73
2019-01-31T02:39:47.175Z,98091.62
2019-01-31T02:40:18.399Z,98092.92
2019-01-31T02:40:49.651Z,98093.45
2019-01-31T02:41:20.857Z,98093.05
2019-01-31T02:41:52.071Z,98087.94
2019-01-31T02:42:23.311Z,98090.59
2019-01-31T02:42:54.528Z,98092.31
2019-01-31T02:43:25.748Z,98088.89
2019-01-31T02:43:57.003Z,98085.50
2019-01-31T02:44:28.392Z,98087.20
2019-01-31T02:44:59.585Z,98085.11
2019-01-31T02:45:30.810Z,98086.59
2019-01-31T02:46:02.028Z,98089.55
2019-01-31T02:46:33.261Z,98084.44
2019-01-31T02:47:04.483Z,98089.55
2019-01-31T02:47:35.692Z,98087.42
2019-01-31T02:48:06.895Z,98086.59
2019-01-31T02:48:38.106Z,98082.24
2019-01-31T02:49:09.318Z,98091.71
2019-01-31T02:49:40.588Z,98090.35
2019-01-31T02:50:11.799Z,98087.36
2019-01-31T02:50:43.011Z,98083.94
2019-01-31T02:51:14.241Z,98084.38
2019-01-31T02:51:45.434Z,98090.84
2019-01-31T02:52:16.673Z,98093.01
2019-01-31T02:52:47.888Z,98096.98
2019-01-31T02:53:19.145Z,98091.06
2019-01-31T02:53:50.352Z,98090.33
2019-01-31T02:54:21.563Z,98090.92
2019-01-31T02:54:52.788Z,98086.30
2019-01-31T02:55:24.001Z,98092.80
2019-01-31T02:55:55.222Z,98092.10
2019-01-31T02:56:26.436Z,98090.09
2019-01-31T02:56:57.657Z,98089.82
2019-01-31T02:57:28.890Z,98095.41
2019-01-31T02:58:00.104Z,98101.47
2019-01-31T02:58:31.469Z,98095.00
2019-01-31T02:59:02.671Z,98094.11
2019-01-31T02:59:33.937Z,98092.75
2019-01-31T03:00:05.201Z,98095.34
2019-01-31T03:00:36.419Z,98094.45
2019-01-31T03:01:07.647Z,98097.84
2019-01-31T03:01:38.895Z,98096.57
2019-01-31T03:02:10.109Z,98093.98
2019-01-31T03:02:41.377Z,98095.00
2019-01-31T03:03:12.657Z,98092.23
2019-01-31T03:03:43.892Z,98096.45
2019-01-31T03:04:15.119Z,98094.53
2019-01-31T03:04:46.359Z,98098.99
2019-01-31T03:05:17.570Z,98086.63
2019-01-31T03:05:48.789Z,98094.40
2019-01-31T03:06:20.002Z,98091.81
2019-01-31T03:06:51.223Z,98087.00
2019-01-31T03:07:22.790Z,98093.59
2019-01-31T03:07:54.037Z,98090.32
2019-01-31T03:08:25.253Z,98091.82
2019-01-31T03:08:56.458Z,98089.73
2019-01-31T03:09:27.692Z,98097.29
2019-01-31T03:09:58.892Z,98095.83
2019-01-31T03:10:30.097Z,98100.14
2019-01-31T03:11:01.315Z,98099.36
2019-01-31T03:11:32.516Z,98101.98
2019-01-31T03:12:03.727Z,98107.70
2019-01-31T03:12:34.928Z,98112.64
2019-01-31T03:13:06.587Z,98110.53
2019-01-31T03:13:37.815Z,98110.73
2019-01-31T03:14:10.441Z,98106.02
2019-01-31T03:14:41.988Z,98111.14
2019-01-31T03:15:13.205Z,98106.08
2019-01-31T03:15:44.473Z,98106.16
2019-01-31T03:16:15.684Z,98107.02
2019-01-31T03:16:47.010Z,98106.56
2019-01-31T03:17:18.260Z,98102.30
2019-01-31T03:17:49.466Z,98108.83
2019-01-31T03:18:20.676Z,98109.25
2019-01-31T03:18:51.908Z,98113.65
2019-01-31T03:19:23.134Z,98115.85
2019-01-31T03:19:54.342Z,98112.90
2019-01-31T03:20:25.556Z,98120.19
2019-01-31T03:20:56.811Z,98119.36
2019-01-31T03:21:28.034Z,98118.15
2019-01-31T03:21:59.240Z,98118.15
2019-01-31T03:22:30.532Z,98122.03
2019-01-31T03:23:01.757Z,98120.30
2019-01-31T03:23:32.978Z,98117.66
2019-01-31T03:24:04.192Z,98115.48
2019-01-31T03:24:35.409Z,98118.02
2019-01-31T03:25:06.623Z,98117.15
2019-01-31T03:25:37.832Z,98118.44
2019-01-31T03:26:09.054Z,98120.66
2019-01-31T03:26:40.273Z,98116.31
2019-01-31T03:27:11.497Z,98116.38
2019-01-31T03:27:42.721Z,98122.43
2019-01-31T03:28:14.003Z,98115.75
2019-01-31T03:28:45.197Z,98120.15
2019-01-31T03:29:16.396Z,98121.44
2019-01-31T03:29:47.607Z,98118.53
2019-01-31T03:30:18.892Z,98124.10
2019-01-31T03:30:50.096Z,98122.38
2019-01-31T03:31:21.336Z,98122.73
2019-01-31T03:31:52.545Z,98129.08
2019-01-31T03:32:23.753Z,98122.97
2019-01-31T03:32:54.974Z,98126.36
2019-01-31T03:33:26.187Z,98126.02
2019-01-31T03:33:57.390Z,98128.60
2019-01-31T03:34:28.621Z,98126.91
2019-01-31T03:34:59.874Z,98131.20
2019-01-31T03:35:31.144Z,98129.48
2019-01-31T03:36:02.360Z,98126.84
2019-01-31T03:36:33.574Z,98126.44
2019-01-31T03:37:04.831Z,98127.71
2019-01-31T03:37:36.103Z,98124.61
2019-01-31T03:38:07.356Z,98129.30
2019-01-31T03:38:38.561Z,98128.00
2019-01-31T03:39:09.771Z,98129.70
2019-01-31T03:39:40.977Z,98129.19
2019-01-31T03:40:12.197Z,98123.12
2019-01-31T03:40:43.446Z,98125.31
2019-01-31T03:41:14.692Z,98044.17
2019-01-31T03:41:45.915Z,98121.14
2019-01-31T03:42:17.181Z,98122.48
2019-01-31T03:42:48.407Z,98129.36
2019-01-31T03:43:19.630Z,98122.14
2019-01-31T03:43:50.852Z,98127.31
2019-01-31T03:44:22.083Z,98126.02
2019-01-31T03:44:53.297Z,98124.61
2019-01-31T03:45:24.500Z,98128.55
2019-01-31T03:45:55.719Z,98122.56
2019-01-31T03:46:26.974Z,98123.10
2019-01-31T03:46:58.179Z,98124.80
2019-01-31T03:47:29.465Z,98129.08
2019-01-31T03:48:00.695Z,98126.91
2019-01-31T03:48:31.912Z,98124.31
2019-01-31T03:49:03.135Z,98125.31
2019-01-31T03:49:34.391Z,98120.58
2019-01-31T03:50:06.887Z,98128.33
2019-01-31T03:50:38.409Z,98122.81
2019-01-31T03:51:09.610Z,98123.62
2019-01-31T03:51:40.822Z,98118.13
2019-01-31T03:52:12.025Z,98118.53
2019-01-31T03:52:43.280Z,98122.86
2019-01-31T03:53:14.492Z,98115.92
2019-01-31T03:53:45.710Z,98114.16
2019-01-31T03:54:16.925Z,98112.77
2019-01-31T03:54:48.151Z,98115.70
2019-01-31T03:55:19.374Z,98112.22
2019-01-31T03:55:50.605Z,98120.30
2019-01-31T03:56:21.815Z,98113.78
2019-01-31T03:56:53.026Z,98119.73
2019-01-31T03:57:24.253Z,98117.15
2019-01-31T03:57:55.527Z,98119.95
2019-01-31T03:58:26.739Z,98118.27
2019-01-31T03:58:57.951Z,98118.69
2019-01-31T03:59:29.161Z,98119.55
2019-01-31T04:00:00.417Z,98112.09
2019-01-31T04:00:31.596Z,98119.73
2019-01-31T04:01:02.841Z,98117.55
2019-01-31T04:01:34.069Z,98114.89
2019-01-31T04:02:05.295Z,98109.20
2019-01-31T04:02:36.515Z,98110.06
2019-01-31T04:03:08.001Z,98114.73
2019-01-31T04:03:39.239Z,98116.42
2019-01-31T04:04:10.460Z,98122.89
2019-01-31T04:04:41.692Z,98118.60
2019-01-31T04:05:12.906Z,98122.48
2019-01-31T04:05:44.127Z,98120.73
2019-01-31T04:06:15.356Z,98121.19
2019-01-31T04:06:46.566Z,98121.19
2019-01-31T04:07:17.801Z,98120.73
2019-01-31T04:07:49.029Z,98118.48
2019-01-31T04:08:20.282Z,98120.59
2019-01-31T04:08:51.508Z,98115.36
2019-01-31T04:09:22.651Z,98115.30
2019-01-31T04:09:53.874Z,98118.70
2019-01-31T04:10:25.081Z,98118.64
2019-01-31T04:10:56.293Z,98113.98
2019-01-31T04:11:27.548Z,98118.70
2019-01-31T04:11:58.768Z,98123.88
2019-01-31T04:12:30.002Z,98113.98
2019-01-31T04:13:01.262Z,98117.81
2019-01-31T04:13:32.470Z,98115.22
2019-01-31T04:14:03.722Z,98116.92
2019-01-31T04:14:34.935Z,98122.92
2019-01-31T04:15:06.134Z,98117.67
2019-01-31T04:15:37.416Z,98121.03
2019-01-31T04:16:08.623Z,98120.20
2019-01-31T04:16:39.829Z,98122.79
2019-01-31T04:17:11.047Z,98118.02
2019-01-31T04:17:42.325Z,98116.18
2019-01-31T04:18:13.588Z,98114.89
2019-01-31T04:18:44.816Z,98110.55
2019-01-31T04:19:16.024Z,98113.19
2019-01-31T04:19:47.305Z,98118.30
2019-01-31T04:20:18.505Z,98117.20
2019-01-31T04:20:51.202Z,98119.10
2019-01-31T04:21:22.567Z,98117.81
2019-01-31T04:21:53.806Z,98121.75
2019-01-31T04:22:25.006Z,98122.09
2019-01-31T04:22:56.215Z,98121.23
2019-01-31T04:23:27.475Z,98121.69
2019-01-31T04:23:58.694Z,98122.92
2019-01-31T04:24:29.931Z,98116.05
2019-01-31T04:25:01.139Z,98119.85
2019-01-31T04:25:34.432Z,98119.45
2019-01-31T04:26:05.663Z,98122.87
2019-01-31T04:26:36.874Z,98122.17
2019-01-31T04:27:08.096Z,98128.75
2019-01-31T04:27:39.304Z,98125.77
2019-01-31T04:28:10.522Z,98121.08
2019-01-31T04:28:41.727Z,98121.48
2019-01-31T04:29:12.941Z,98124.95
2019-01-31T04:29:44.153Z,98128.75
2019-01-31T04:30:15.366Z,98126.95
2019-01-31T04:30:46.635Z,98120.88
2019-01-31T04:31:17.846Z,98125.17
2019-01-31T04:31:49.104Z,98120.45
2019-01-31T04:32:20.324Z,98119.19
2019-01-31T04:32:51.555Z,98119.99
2019-01-31T04:33:22.780Z,98119.99
2019-01-31T04:33:53.997Z,98123.39
2019-01-31T04:34:25.206Z,98120.28
2019-01-31T04:34:56.424Z,98127.16
2019-01-31T04:35:27.640Z,98122.09
2019-01-31T04:35:58.898Z,98124.88
2019-01-31T04:36:30.125Z,98123.31
2019-01-31T04:37:01.374Z,98127.70
2019-01-31T04:37:32.582Z,98126.93
2019-01-31T04:38:03.825Z,98128.16
2019-01-31T04:38:35.036Z,98129.88
2019-01-31T04:39:06.292Z,98126.02
2019-01-31T04:39:37.498Z,98134.52
2019-01-31T04:40:08.713Z,98129.30
2019-01-31T04:40:39.985Z,98127.46
2019-01-31T04:41:11.201Z,98126.52
2019-01-31T04:41:42.474Z,98120.88
2019-01-31T04:42:13.677Z,98120.88
2019-01-31T04:42:45.563Z,98118.22
2019-01-31T04:43:16.782Z,98117.81
2019-01-31T04:43:48.002Z,98120.40
2019-01-31T04:44:19.200Z,98122.47
2019-01-31T04:44:50.715Z,98120.28
2019-01-31T04:45:21.954Z,98122.38
2019-01-31T04:45:53.178Z,98122.79
2019-01-31T04:46:24.393Z,98127.07
2019-01-31T04:46:55.645Z,98127.91
2019-01-31T04:47:26.860Z,98128.73
2019-01-31T04:47:58.065Z,98129.54
2019-01-31T04:48:29.273Z,98131.23
2019-01-31T04:49:00.491Z,98131.59
2019-01-31T04:49:31.706Z,98130.29
2019-01-31T04:50:02.985Z,98136.81
2019-01-31T04:50:34.190Z,98127.82
2019-01-31T04:51:05.419Z,98129.06
2019-01-31T04:51:36.658Z,98132.94
2019-01-31T04:52:10.165Z,98131.64
2019-01-31T04:52:41.366Z,98128.94
2019-01-31T04:53:12.568Z,98129.83
2019-01-31T04:53:43.781Z,98129.95
2019-01-31T04:54:14.998Z,98126.52
2019-01-31T04:54:46.195Z,98123.94
2019-01-31T04:55:17.517Z,98123.02
2019-01-31T04:55:48.734Z,98113.59
2019-01-31T04:56:19.940Z,98124.28
2019-01-31T04:56:51.165Z,98120.29
2019-01-31T04:57:22.415Z,98111.70
2019-01-31T04:57:53.618Z,98115.92
2019-01-31T04:58:24.836Z,98118.51
2019-01-31T04:58:56.048Z,98111.23
2019-01-31T04:59:27.254Z,98109.53
2019-01-31T04:59:58.499Z,98115.12
2019-01-31T05:00:29.703Z,98111.29
2019-01-31T05:01:00.850Z,98120.58
2019-01-31T05:01:32.052Z,98119.28
2019-01-31T05:02:03.288Z,98122.27
2019-01-31T05:02:34.551Z,98123.50
2019-01-31T05:03:05.762Z,98118.67
2019-01-31T05:03:36.989Z,98121.23
2019-01-31T05:04:08.199Z,98120.72
2019-01-31T05:04:39.416Z,98115.59
2019-01-31T05:05:10.615Z,98120.44
2019-01-31T05:05:41.826Z,98123.97
2019-01-31T05:06:13.172Z,98117.22
2019-01-31T05:06:44.357Z,98119.80
2019-01-31T05:07:15.639Z,98122.33
2019-01-31T05:07:46.905Z,98117.91
2019-01-31T05:08:18.128Z,98115.31
2019-01-31T05:08:49.342Z,98116.49
2019-01-31T05:09:20.939Z,98113.02
2019-01-31T05:09:52.183Z,98117.77
2019-01-31T05:10:23.401Z,98112.18
2019-01-31T05:10:54.614Z,98114.70
2019-01-31T05:11:25.830Z,98110.83
2019-01-31T05:11:57.046Z,98114.70
2019-01-31T05:12:28.255Z,98112.52
2019-01-31T05:12:59.507Z,98115.52
2019-01-31T05:13:30.711Z,98113.81
2019-01-31T05:14:01.929Z,98116.81
2019-01-31T05:14:33.172Z,98114.59
2019-01-31T05:15:04.398Z,98118.39
2019-01-31T05:15:35.632Z,98117.92
2019-01-31T05:16:06.840Z,98114.91
2019-01-31T05:16:38.049Z,98117.44
2019-01-31T05:17:09.262Z,98117.50
2019-01-31T05:17:40.465Z,98116.20
2019-01-31T05:18:11.765Z,98113.21
2019-01-31T05:18:42.976Z,98116.69
2019-01-31T05:19:14.240Z,98117.23
2019-01-31T05:19:45.504Z,98117.77
2019-01-31T05:20:16.729Z,98113.13
2019-01-31T05:20:47.928Z,98110.14
2019-01-31T05:21:21.041Z,98111.84
2019-01-31T05:21:52.154Z,98112.73
2019-01-31T05:22:23.366Z,98114.37
2019-01-31T05:22:54.585Z,98108.78
2019-01-31T05:23:25.811Z,98117.36
2019-01-31T05:23:57.031Z,98108.70
2019-01-31T05:24:28.294Z,98116.41
2019-01-31T05:24:59.499Z,98114.22
2019-01-31T05:25:30.713Z,98110.77
2019-01-31T05:26:01.933Z,98111.63
2019-01-31T05:26:33.136Z,98112.92
2019-01-31T05:27:04.582Z,98117.30
2019-01-31T05:27:35.832Z,98108.24
2019-01-31T05:28:07.102Z,98109.94
2019-01-31T05:28:38.312Z,98113.30
2019-01-31T05:29:09.518Z,98117.18
2019-01-31T05:29:40.767Z,98119.77
2019-01-31T05:30:11.953Z,98120.69
2019-01-31T05:30:43.180Z,98125.41
2019-01-31T05:31:14.349Z,98130.58
2019-01-31T05:31:45.564Z,98125.81
2019-01-31T05:32:16.822Z,98128.34
2019-01-31T05:32:48.022Z,98132.63
2019-01-31T05:33:19.259Z,98131.73
2019-01-31T05:33:50.701Z,98126.15
2019-01-31T05:34:21.923Z,98127.33
2019-01-31T05:34:53.150Z,98132.02
2019-01-31T05:35:25.088Z,98131.52
2019-01-31T05:35:56.292Z,98130.11
2019-01-31T05:36:27.508Z,98123.21
2019-01-31T05:36:58.736Z,98127.03
2019-01-31T05:37:29.958Z,98131.75
2019-01-31T05:38:01.175Z,98132.61
2019-01-31T05:38:32.409Z,98127.03
2019-01-31T05:39:03.672Z,98134.28
2019-01-31T05:39:34.936Z,98138.53
2019-01-31T05:40:06.134Z,98128.21
2019-01-31T05:40:37.378Z,98141.55
2019-01-31T05:41:08.612Z,98135.95
2019-01-31T05:41:39.849Z,98140.66
2019-01-31T05:42:11.069Z,98141.55
2019-01-31T05:42:42.297Z,98141.16
2019-01-31T05:43:13.571Z,98143.80
2019-01-31T05:43:44.772Z,98139.58
2019-01-31T05:44:15.986Z,98146.45
2019-01-31T05:44:47.205Z,98141.67
2019-01-31T05:45:18.407Z,98144.20
2019-01-31T05:45:49.702Z,98141.61
2019-01-31T05:46:20.897Z,98144.62
2019-01-31T05:46:52.171Z,98140.75
2019-01-31T05:47:23.378Z,98136.44
2019-01-31T05:47:54.585Z,98142.05
2019-01-31T05:48:25.859Z,98141.55
2019-01-31T05:48:57.028Z,98147.13
2019-01-31T05:49:28.255Z,98140.20
2019-01-31T05:49:59.475Z,98144.42
2019-01-31T05:50:30.754Z,98146.12
2019-01-31T05:51:01.958Z,98144.34
2019-01-31T05:51:33.191Z,98141.75
2019-01-31T05:52:04.467Z,98149.45
2019-01-31T05:52:35.680Z,98146.52
2019-01-31T05:53:07.117Z,98147.82
2019-01-31T05:53:38.328Z,98151.70
2019-01-31T05:54:09.535Z,98147.82
2019-01-31T05:54:40.743Z,98149.58
2019-01-31T05:55:11.960Z,98146.93
2019-01-31T05:55:43.293Z,98147.73
2019-01-31T05:56:14.479Z,98149.03
2019-01-31T05:56:46.449Z,98147.21
2019-01-31T05:57:17.681Z,98151.09
2019-01-31T05:57:48.922Z,98152.51
2019-01-31T05:58:20.159Z,98154.20
2019-01-31T05:58:51.377Z,98157.69
2019-01-31T05:59:22.656Z,98158.98
2019-01-31T05:59:53.880Z,97998.25
2019-01-31T06:00:25.119Z,98156.80
2019-01-31T06:00:56.346Z,98154.98
2019-01-31T06:01:27.609Z,98157.48
2019-01-31T06:01:58.815Z,98159.55
2019-01-31T06:02:30.039Z,98156.93
2019-01-31T06:03:01.259Z,98155.17
2019-01-31T06:03:32.480Z,98161.98
2019-01-31T06:04:03.703Z,98155.02
2019-01-31T06:04:34.927Z,98155.80
2019-01-31T06:05:06.157Z,98156.66
2019-01-31T06:05:37.404Z,98065.35
2019-01-31T06:06:08.609Z,98162.23
2019-01-31T06:06:39.874Z,98161.84
2019-01-31T06:07:11.611Z,98157.20